Time;durP1;ratioP1;P1;durP2;ratioP2;P2;SDS_P1;SDS_P2;PMS_P1;PMS_P2;Temp;Humidity;BMP_temperature;BMP_pressure;BME280_temperature;BME280_humidity;BME280_pressure;Samples;Min_cycle;Max_cycle;Signal;HPM_P1;HPM_P2
2022/08/16 00:02:56;;;;;;;15.32;7.72;;;;;;;;;;10012982;28;20428;-59
2022/08/16 00:07:51;;;;;;;15.55;7.30;;;;;;;;;;10025700;28;20046;-59
2022/08/16 00:12:49;;;;;;;11.23;6.80;;;;;;;;;;10029692;28;20125;-59
2022/08/16 00:17:43;;;;;;;12.15;7.90;;;;;;;;;;10028381;28;20481;-59
2022/08/16 00:22:49;;;;;;;10.57;5.78;;;;;;;;;;10029416;28;20046;-60
2022/08/16 00:27:45;;;;;;;7.95;5.53;;;;;;;;;;10029008;28;20523;-60
2022/08/16 00:32:45;;;;;;;10.25;5.28;;;;;;;;;;10030070;28;20484;-59
2022/08/16 00:37:41;;;;;;;14.40;6.32;;;;;;;;;;10029887;28;20049;-60
2022/08/16 00:42:52;;;;;;;8.38;5.68;;;;;;;;;;10026616;28;20210;-59
2022/08/16 00:47:46;;;;;;;8.45;5.72;;;;;;;;;;10029503;28;20112;-59
2022/08/16 00:52:41;;;;;;;8.70;5.95;;;;;;;;;;10021474;28;20056;-59
2022/08/16 00:57:42;;;;;;;10.00;5.97;;;;;;;;;;10020958;28;20080;-60
2022/08/16 01:02:52;;;;;;;8.82;7.13;;;;;;;;;;10020871;28;20073;-60
2022/08/16 01:07:45;;;;;;;10.05;6.05;;;;;;;;;;10025080;28;20072;-59
2022/08/16 01:12:45;;;;;;;9.73;5.78;;;;;;;;;;10026184;28;20443;-59
2022/08/16 01:17:40;;;;;;;7.75;5.38;;;;;;;;;;10025670;28;20140;-60
2022/08/16 01:22:47;;;;;;;11.90;5.85;;;;;;;;;;10027361;28;20046;-59
2022/08/16 01:27:53;;;;;;;6.60;4.93;;;;;;;;;;10029673;28;20053;-60
2022/08/16 01:32:53;;;;;;;6.70;4.32;;;;;;;;;;10039850;28;20042;-59
2022/08/16 01:38:17;;;;;;;6.07;4.55;;;;;;;;;;10016957;28;20056;-60
2022/08/16 01:43:13;;;;;;;13.13;4.85;;;;;;;;;;10011296;28;20447;-59
2022/08/16 01:48:06;;;;;;;5.53;5.03;;;;;;;;;;10026694;28;20053;-60
2022/08/16 01:53:14;;;;;;;7.05;5.53;;;;;;;;;;10013417;28;20046;-60
2022/08/16 01:58:28;;;;;;;6.07;4.85;;;;;;;;;;10007885;28;20456;-60
2022/08/16 02:03:23;;;;;;;11.02;5.65;;;;;;;;;;10026049;28;20420;-60
2022/08/16 02:08:19;;;;;;;8.00;4.80;;;;;;;;;;10034363;28;20566;-60
2022/08/16 02:13:27;;;;;;;4.63;4.23;;;;;;;;;;10026576;28;20053;-60
2022/08/16 02:18:25;;;;;;;5.53;4.57;;;;;;;;;;10025218;28;20112;-59
2022/08/16 02:23:23;;;;;;;6.72;4.88;;;;;;;;;;10026202;28;20061;-59
2022/08/16 02:28:22;;;;;;;7.47;4.55;;;;;;;;;;10026971;28;20077;-60
2022/08/16 02:33:16;;;;;;;7.00;4.55;;;;;;;;;;10035966;28;20141;-59
2022/08/16 02:38:11;;;;;;;8.00;4.82;;;;;;;;;;10024583;28;20046;-59
2022/08/16 02:43:07;;;;;;;10.15;4.28;;;;;;;;;;10012977;28;20057;-59
2022/08/16 02:47:59;;;;;;;5.15;4.28;;;;;;;;;;10032954;28;20054;-60
2022/08/16 02:53:13;;;;;;;6.47;5.88;;;;;;;;;;10047409;28;20065;-60
2022/08/16 02:58:10;;;;;;;11.88;7.22;;;;;;;;;;10032181;28;20057;-59
2022/08/16 03:03:05;;;;;;;9.05;6.63;;;;;;;;;;10014132;28;20042;-60
2022/08/16 03:08:03;;;;;;;8.57;6.43;;;;;;;;;;10040393;28;20072;-60
2022/08/16 03:13:17;;;;;;;7.45;6.30;;;;;;;;;;10030930;28;20041;-60
2022/08/16 03:18:12;;;;;;;9.15;6.45;;;;;;;;;;10021442;28;20140;-59
2022/08/16 03:23:26;;;;;;;10.77;7.40;;;;;;;;;;10017308;28;20078;-59
2022/08/16 03:28:29;;;;;;;7.93;6.68;;;;;;;;;;10037636;28;20081;-59
2022/08/16 03:33:23;;;;;;;11.90;6.65;;;;;;;;;;10021657;28;20148;-59
2022/08/16 03:38:23;;;;;;;12.95;7.25;;;;;;;;;;10010071;28;20081;-60
2022/08/16 03:43:36;;;;;;;9.02;7.28;;;;;;;;;;10023820;28;20054;-60
2022/08/16 03:48:48;;;;;;;16.65;8.68;;;;;;;;;;10013274;28;20054;-60
2022/08/16 03:53:45;;;;;;;13.43;8.03;;;;;;;;;;10039377;28;20046;-60
2022/08/16 03:58:55;;;;;;;11.27;8.55;;;;;;;;;;10029841;28;20104;-59
2022/08/16 04:03:53;;;;;;;;;;;;;;;;;;10032420;28;20107;-60
2022/08/16 04:08:47;;;;;;;12.35;6.93;;;;;;;;;;10024122;28;19952;-60
2022/08/16 04:13:43;;;;;;;7.55;6.60;;;;;;;;;;10011283;28;20049;-59
2022/08/16 04:18:59;;;;;;;;;;;;;;;;;;10016037;28;20548;-60
2022/08/16 04:23:58;;;;;;;8.40;6.93;;;;;;;;;;10013264;28;19971;-60
2022/08/16 04:28:52;;;;;;;6.75;6.10;;;;;;;;;;10008390;28;20136;-59
2022/08/16 04:34:05;;;;;;;7.38;6.60;;;;;;;;;;10027215;28;20507;-60
2022/08/16 04:39:01;;;;;;;9.60;6.13;;;;;;;;;;10003788;28;20050;-61
2022/08/16 04:43:57;;;;;;;13.63;7.68;;;;;;;;;;10003987;28;20092;-61
2022/08/16 04:48:51;;;;;;;7.88;7.18;;;;;;;;;;10007919;28;20124;-61
2022/08/16 04:53:47;;;;;;;6.95;5.88;;;;;;;;;;10024557;28;20136;-62
2022/08/16 04:58:44;;;;;;;12.23;6.05;;;;;;;;;;10021435;28;20084;-59
2022/08/16 05:03:41;;;;;;;13.38;6.15;;;;;;;;;;10006452;28;20542;-59
2022/08/16 05:08:59;;;;;;;7.90;6.82;;;;;;;;;;10001825;28;20046;-58
2022/08/16 05:13:55;;;;;;;7.22;6.53;;;;;;;;;;10018312;28;20085;-58
2022/08/16 05:19:01;;;;;;;7.60;6.00;;;;;;;;;;10017218;28;20096;-60
2022/08/16 05:24:00;;;;;;;12.93;6.25;;;;;;;;;;10018256;28;20052;-61
2022/08/16 05:29:00;;;;;;;6.47;5.18;;;;;;;;;;10005196;28;20460;-60
2022/08/16 05:33:59;;;;;;;8.20;5.88;;;;;;;;;;10023952;28;20500;-60
2022/08/16 05:38:56;;;;;;;10.93;5.90;;;;;;;;;;10002976;28;20088;-59
2022/08/16 05:43:52;;;;;;;17.65;6.40;;;;;;;;;;10020558;28;20069;-62
2022/08/16 05:49:00;;;;;;;9.10;5.13;;;;;;;;;;10019316;28;20049;-60
2022/08/16 05:54:05;;;;;;;5.43;4.57;;;;;;;;;;10000267;28;20305;-59
2022/08/16 05:58:58;;;;;;;7.18;4.97;;;;;;;;;;9994989;28;20077;-61
2022/08/16 06:03:53;;;;;;;4.85;3.38;;;;;;;;;;10005053;28;20527;-60
2022/08/16 06:08:55;;;;;;;6.95;4.93;;;;;;;;;;10001062;28;20050;-59
2022/08/16 06:13:49;;;;;;;6.30;3.90;;;;;;;;;;10029339;28;20092;-59
2022/08/16 06:18:58;;;;;;;3.90;2.92;;;;;;;;;;10029585;28;20050;-60
2022/08/16 06:23:59;;;;;;;4.50;3.70;;;;;;;;;;10015317;28;20038;-60
2022/08/16 06:29:13;;;;;;;7.85;3.42;;;;;;;;;;10033278;28;20490;-59
2022/08/16 06:34:07;;;;;;;4.80;3.95;;;;;;;;;;10030605;28;20050;-59
2022/08/16 06:39:22;;;;;;;5.65;3.58;;;;;;;;;;10012316;28;20057;-60
2022/08/16 06:44:26;;;;;;;5.28;3.65;;;;;;;;;;10013685;28;20053;-59
2022/08/16 06:49:25;;;;;;;4.93;3.65;;;;;;;;;;10005571;28;20069;-60
2022/08/16 06:54:19;;;;;;;4.82;3.55;;;;;;;;;;10028164;28;20072;-59
2022/08/16 06:59:12;;;;;;;7.10;3.30;;;;;;;;;;10030970;28;20054;-59
2022/08/16 07:04:13;;;;;;;8.75;5.13;;;;;;;;;;10018103;28;20045;-59
2022/08/16 07:09:27;;;;;;;8.68;4.18;;;;;;;;;;10014217;28;20136;-59
2022/08/16 07:14:22;;;;;;;6.68;3.72;;;;;;;;;;10015506;28;20451;-59
2022/08/16 07:19:22;;;;;;;9.02;4.07;;;;;;;;;;10032430;28;20480;-59
2022/08/16 07:24:35;;;;;;;5.93;4.15;;;;;;;;;;10032672;28;20041;-59
2022/08/16 07:29:38;;;;;;;5.05;3.78;;;;;;;;;;10026044;28;20094;-59
2022/08/16 07:34:34;;;;;;;5.75;4.70;;;;;;;;;;10014061;28;20057;-59
2022/08/16 07:39:40;;;;;;;6.85;4.05;;;;;;;;;;10031063;28;20136;-59
2022/08/16 07:44:35;;;;;;;8.15;4.15;;;;;;;;;;10023742;28;20519;-59
2022/08/16 07:49:42;;;;;;;6.63;4.90;;;;;;;;;;10031370;28;20053;-59
2022/08/16 07:54:51;;;;;;;6.35;4.20;;;;;;;;;;10015670;28;20546;-59
2022/08/16 07:59:47;;;;;;;6.25;4.60;;;;;;;;;;10002834;28;20045;-59
2022/08/16 08:04:43;;;;;;;10.77;4.68;;;;;;;;;;10030882;28;20056;-59
2022/08/16 08:09:38;;;;;;;7.70;5.15;;;;;;;;;;10023413;28;20108;-58
2022/08/16 08:14:35;;;;;;;9.30;4.15;;;;;;;;;;10028458;28;20046;-61
2022/08/16 08:19:30;;;;;;;9.98;4.60;;;;;;;;;;10008993;28;20462;-64
2022/08/16 08:24:24;;;;;;;8.63;3.55;;;;;;;;;;10008860;28;20141;-62
2022/08/16 08:29:25;;;;;;;10.68;3.15;;;;;;;;;;10026941;28;20085;-62
2022/08/16 08:34:35;;;;;;;11.63;3.47;;;;;;;;;;10011237;28;20100;-62
2022/08/16 08:39:31;;;;;;;6.28;3.30;;;;;;;;;;10026469;28;20416;-63
2022/08/16 08:44:45;;;;;;;8.07;3.20;;;;;;;;;;10026420;28;20112;-62
2022/08/16 08:49:39;;;;;;;10.88;4.07;;;;;;;;;;10011562;28;20556;-62
2022/08/16 08:54:40;;;;;;;7.07;2.72;;;;;;;;;;10010998;28;20056;-62
2022/08/16 08:59:34;;;;;;;6.30;3.28;;;;;;;;;;10012471;28;20046;-63
2022/08/16 09:04:37;;;;;;;5.38;2.80;;;;;;;;;;10010736;28;20074;-61
2022/08/16 09:09:31;;;;;;;9.05;2.70;;;;;;;;;;10010266;28;20077;-62
2022/08/16 09:14:29;;;;;;;7.28;3.70;;;;;;;;;;10005912;28;20140;-62
2022/08/16 09:19:22;;;;;;;4.95;3.38;;;;;;;;;;10022145;28;20559;-62
2022/08/16 09:24:32;;;;;;;5.60;3.00;;;;;;;;;;10005352;28;20128;-63
2022/08/16 09:29:46;;;;;;;7.70;3.38;;;;;;;;;;10008891;28;20177;-65
2022/08/16 09:34:52;;;;;;;8.52;2.70;;;;;;;;;;10023992;28;20120;-61
2022/08/16 09:39:51;;;;;;;7.40;3.70;;;;;;;;;;10022616;28;20092;-61
2022/08/16 09:44:46;;;;;;;7.53;2.65;;;;;;;;;;10023131;28;20050;-62
2022/08/16 09:50:00;;;;;;;10.43;2.72;;;;;;;;;;10022663;28;20736;-62
2022/08/16 09:54:54;;;;;;;10.55;3.35;;;;;;;;;;10024312;28;20050;-62
2022/08/16 09:59:49;;;;;;;7.50;3.25;;;;;;;;;;10024770;28;20072;-63
2022/08/16 10:04:48;;;;;;;23.98;4.32;;;;;;;;;;10033797;28;20053;-60
2022/08/16 10:09:47;;;;;;;6.32;2.55;;;;;;;;;;10023867;28;20059;-61
2022/08/16 10:14:49;;;;;;;8.15;2.60;;;;;;;;;;10022618;28;20058;-63
2022/08/16 10:19:50;;;;;;;8.02;2.65;;;;;;;;;;10023666;28;20408;-64
2022/08/16 10:24:43;;;;;;;19.30;4.30;;;;;;;;;;10021835;28;20492;-62
2022/08/16 10:29:51;;;;;;;5.03;2.50;;;;;;;;;;10021709;28;20579;-62
2022/08/16 10:34:54;;;;;;;10.80;2.63;;;;;;;;;;10021060;28;20054;-61
2022/08/16 10:39:49;;;;;;;14.43;2.53;;;;;;;;;;10017359;28;20439;-62
2022/08/16 10:44:48;;;;;;;11.65;2.85;;;;;;;;;;10020368;28;20088;-62
2022/08/16 10:49:47;;;;;;;7.85;1.90;;;;;;;;;;10018068;28;20120;-60
2022/08/16 10:54:43;;;;;;;10.63;2.83;;;;;;;;;;10021644;28;20073;-63
2022/08/16 10:59:56;;;;;;;7.43;2.25;;;;;;;;;;10026084;28;20044;-61
2022/08/16 11:04:52;;;;;;;8.65;2.38;;;;;;;;;;10028848;28;20046;-62
2022/08/16 11:10:02;;;;;;;7.22;3.08;;;;;;;;;;10031802;28;20073;-63
2022/08/16 11:15:12;;;;;;;5.78;2.47;;;;;;;;;;10027814;28;20081;-62
2022/08/16 11:20:16;;;;;;;5.70;2.10;;;;;;;;;;10028660;28;20041;-59
2022/08/16 11:25:31;;;;;;;9.13;2.40;;;;;;;;;;10026254;28;20038;-63
2022/08/16 11:30:45;;;;;;;9.15;2.10;;;;;;;;;;10026123;28;20531;-62
2022/08/16 11:35:47;;;;;;;5.22;2.60;;;;;;;;;;10026177;28;20079;-60
2022/08/16 11:41:00;;;;;;;8.10;2.50;;;;;;;;;;10024380;28;20061;-63
2022/08/16 11:45:56;;;;;;;7.63;2.72;;;;;;;;;;10024650;28;20054;-62
2022/08/16 11:50:54;;;;;;;8.85;2.05;;;;;;;;;;10025298;28;20417;-64
2022/08/16 11:55:48;;;;;;;7.85;2.28;;;;;;;;;;10025991;28;20053;-63
2022/08/16 12:00:47;;;;;;;8.77;2.30;;;;;;;;;;10026873;28;20081;-62
2022/08/16 12:05:45;;;;;;;8.27;3.33;;;;;;;;;;10024945;28;20053;-63
2022/08/16 12:10:45;;;;;;;10.88;2.70;;;;;;;;;;10027264;28;20054;-62
2022/08/16 12:15:40;;;;;;;3.85;1.88;;;;;;;;;;10026910;28;20416;-64
2022/08/16 12:20:34;;;;;;;;;;;;;;;;;;10029801;28;20121;-60
2022/08/16 12:25:31;;;;;;;11.48;2.17;;;;;;;;;;10024055;28;19922;-62
2022/08/16 12:30:29;;;;;;;6.80;2.47;;;;;;;;;;10018995;28;20054;-61
2022/08/16 12:35:31;;;;;;;8.10;2.35;;;;;;;;;;10021872;28;20052;-61
2022/08/16 12:40:30;;;;;;;6.18;2.75;;;;;;;;;;10016567;28;20088;-62
2022/08/16 12:45:25;;;;;;;10.45;3.40;;;;;;;;;;10006615;28;20133;-61
2022/08/16 12:50:20;;;;;;;10.75;2.53;;;;;;;;;;10021310;28;20084;-61
2022/08/16 12:55:25;;;;;;;;;;;;;;;;;;10015746;28;20096;-61
2022/08/16 13:00:29;;;;;;;7.22;2.80;;;;;;;;;;10020124;28;19929;-62
2022/08/16 13:05:27;;;;;;;6.50;2.80;;;;;;;;;;10026776;28;20046;-63
2022/08/16 13:10:21;;;;;;;;;;;;;;;;;;10025279;28;20064;-63
2022/08/16 13:15:31;;;;;;;6.82;2.25;;;;;;;;;;10008095;28;19940;-63
2022/08/16 13:20:33;;;;;;;6.80;2.75;;;;;;;;;;10017569;28;20077;-63
2022/08/16 13:25:28;;;;;;;8.32;2.40;;;;;;;;;;10015524;28;20885;-63
2022/08/16 13:30:23;;;;;;;8.73;2.35;;;;;;;;;;9999713;28;20555;-63
2022/08/16 13:35:33;;;;;;;5.25;2.13;;;;;;;;;;10023257;28;20080;-63
2022/08/16 13:40:35;;;;;;;6.15;3.10;;;;;;;;;;10018198;28;20416;-63
2022/08/16 13:45:29;;;;;;;7.47;2.33;;;;;;;;;;10017922;28;20117;-63
2022/08/16 13:50:28;;;;;;;5.85;2.95;;;;;;;;;;10016408;28;20057;-62
2022/08/16 13:55:43;;;;;;;6.47;2.30;;;;;;;;;;10007810;28;20054;-62
2022/08/16 14:00:49;;;;;;;7.45;2.80;;;;;;;;;;10021211;28;20077;-63
2022/08/16 14:05:45;;;;;;;6.73;2.37;;;;;;;;;;10010223;28;20398;-63
2022/08/16 14:10:38;;;;;;;5.88;2.50;;;;;;;;;;10018053;28;20530;-62
2022/08/16 14:15:33;;;;;;;10.68;2.40;;;;;;;;;;10014296;28;20074;-63
2022/08/16 14:20:28;;;;;;;10.82;2.70;;;;;;;;;;10024328;28;20042;-63
2022/08/16 14:25:24;;;;;;;15.05;3.08;;;;;;;;;;10008874;28;20050;-64
2022/08/16 14:30:22;;;;;;;7.88;2.10;;;;;;;;;;10005620;28;20053;-64
2022/08/16 14:35:20;;;;;;;8.97;4.43;;;;;;;;;;10026775;28;20042;-56
2022/08/16 14:40:30;;;;;;;15.48;4.78;;;;;;;;;;10028405;28;20085;-58
2022/08/16 14:45:28;;;;;;;12.90;3.85;;;;;;;;;;10030967;28;20046;-58
2022/08/16 14:50:24;;;;;;;7.55;2.88;;;;;;;;;;10030057;28;20603;-57
2022/08/16 14:55:20;;;;;;;13.00;2.78;;;;;;;;;;10013475;28;20045;-63
2022/08/16 15:00:16;;;;;;;9.35;2.80;;;;;;;;;;10029858;28;20050;-62
2022/08/16 15:05:11;;;;;;;7.07;3.00;;;;;;;;;;10030912;28;20076;-61
2022/08/16 15:10:07;;;;;;;5.40;2.55;;;;;;;;;;10032273;28;20103;-63
2022/08/16 15:15:19;;;;;;;9.32;3.35;;;;;;;;;;10030297;28;20046;-61
2022/08/16 15:20:13;;;;;;;9.82;3.17;;;;;;;;;;10030762;28;20064;-61
2022/08/16 15:25:13;;;;;;;5.70;3.35;;;;;;;;;;10031169;28;20136;-60
2022/08/16 15:30:11;;;;;;;11.88;3.13;;;;;;;;;;10030573;28;20054;-60
2022/08/16 15:35:25;;;;;;;7.50;3.03;;;;;;;;;;10024880;28;20066;-62
2022/08/16 15:40:21;;;;;;;11.15;3.15;;;;;;;;;;10025092;28;20480;-62
2022/08/16 15:50:41;;;;;;;7.63;3.88;;;;;;;;;;10012669;28;20062;-60
2022/08/16 15:55:35;;;;;;;17.58;4.45;;;;;;;;;;10025234;28;20137;-63
2022/08/16 16:00:30;;;;;;;13.48;3.72;;;;;;;;;;10035483;28;20310;-72
2022/08/16 16:05:24;;;;;;;9.18;3.70;;;;;;;;;;10035282;28;20053;-64
2022/08/16 16:10:19;;;;;;;8.43;3.17;;;;;;;;;;10020422;28;20046;-63
2022/08/16 16:15:25;;;;;;;11.70;3.28;;;;;;;;;;10039732;28;20049;-66
2022/08/16 16:20:23;;;;;;;6.57;3.63;;;;;;;;;;10042361;28;20061;-66
2022/08/16 16:25:20;;;;;;;7.55;3.30;;;;;;;;;;10035568;28;20529;-71
2022/08/16 16:30:16;;;;;;;10.40;3.63;;;;;;;;;;10040399;28;20411;-61
2022/08/16 16:35:31;;;;;;;6.75;3.20;;;;;;;;;;10038018;28;20049;-71
2022/08/16 16:40:25;;;;;;;6.03;3.60;;;;;;;;;;10025426;28;20137;-67
2022/08/16 16:45:25;;;;;;;17.35;4.18;;;;;;;;;;10027926;28;20054;-62
2022/08/16 16:50:27;;;;;;;12.77;3.40;;;;;;;;;;10025564;28;20042;-63
2022/08/16 16:55:22;;;;;;;7.28;3.08;;;;;;;;;;10040698;28;20092;-63
2022/08/16 17:00:17;;;;;;;10.32;2.95;;;;;;;;;;10035252;28;20378;-65
2022/08/16 17:05:30;;;;;;;8.85;2.97;;;;;;;;;;10021022;28;21071;-61
2022/08/16 17:10:26;;;;;;;6.22;3.50;;;;;;;;;;10017554;28;20054;-63
2022/08/16 17:15:40;;;;;;;8.88;3.80;;;;;;;;;;10011789;28;20045;-60
2022/08/16 17:20:34;;;;;;;5.53;3.47;;;;;;;;;;10015240;28;20058;-61
2022/08/16 17:25:29;;;;;;;7.18;3.17;;;;;;;;;;10028230;28;20412;-58
2022/08/16 17:30:29;;;;;;;11.73;3.88;;;;;;;;;;10019409;28;20045;-65
2022/08/16 17:35:40;;;;;;;6.07;3.33;;;;;;;;;;10039921;28;20128;-61
2022/08/16 17:40:38;;;;;;;7.20;3.60;;;;;;;;;;10039219;28;20128;-61
2022/08/16 17:45:47;;;;;;;10.25;4.47;;;;;;;;;;10022069;28;20050;-60
2022/08/16 17:50:42;;;;;;;7.35;3.33;;;;;;;;;;10019603;28;20115;-60
2022/08/16 17:55:40;;;;;;;10.48;3.30;;;;;;;;;;10022911;28;20053;-60
2022/08/16 18:00:35;;;;;;;6.40;3.20;;;;;;;;;;10022319;28;20569;-61
2022/08/16 18:05:29;;;;;;;7.22;3.25;;;;;;;;;;10038767;28;20396;-60
2022/08/16 18:10:23;;;;;;;9.15;4.18;;;;;;;;;;10033109;28;20116;-60
2022/08/16 18:15:27;;;;;;;8.65;4.25;;;;;;;;;;10036864;28;20080;-59
2022/08/16 18:25:35;;;;;;;9.90;4.63;;;;;;;;;;10033041;28;20081;-67
2022/08/16 18:30:29;;;;;;;18.63;3.70;;;;;;;;;;10023374;28;20455;-60
2022/08/16 18:35:23;;;;;;;11.65;3.35;;;;;;;;;;10031961;28;20054;-62
2022/08/16 18:40:18;;;;;;;9.48;3.42;;;;;;;;;;10033121;28;20816;-61
2022/08/16 18:45:13;;;;;;;4.23;3.47;;;;;;;;;;10026473;28;20044;-61
2022/08/16 18:50:08;;;;;;;10.75;3.58;;;;;;;;;;10042534;28;20046;-59
2022/08/16 18:55:02;;;;;;;9.95;3.67;;;;;;;;;;10024294;28;20081;-65
2022/08/16 19:00:11;;;;;;;21.98;4.70;;;;;;;;;;10024001;28;20050;-61
2022/08/16 19:05:08;;;;;;;9.50;3.50;;;;;;;;;;10021087;28;20096;-63
2022/08/16 19:10:02;;;;;;;11.27;4.50;;;;;;;;;;10033885;28;20069;-66
2022/08/16 19:14:56;;;;;;;10.75;3.40;;;;;;;;;;10020266;28;20088;-62
2022/08/16 19:19:50;;;;;;;11.43;3.67;;;;;;;;;;10015736;28;20073;-60
2022/08/16 19:24:45;;;;;;;16.10;3.88;;;;;;;;;;10015568;28;20569;-62
2022/08/16 19:29:39;;;;;;;13.88;3.88;;;;;;;;;;10022672;28;20066;-61
2022/08/16 19:34:33;;;;;;;7.50;4.35;;;;;;;;;;10007539;28;20409;-59
2022/08/16 19:39:29;;;;;;;22.75;6.32;;;;;;;;;;10001260;28;20066;-60
2022/08/16 19:44:27;;;;;;;10.90;4.80;;;;;;;;;;10017566;28;20481;-60
2022/08/16 19:49:20;;;;;;;12.90;4.10;;;;;;;;;;10017730;28;20058;-60
2022/08/16 19:54:15;;;;;;;9.68;4.22;;;;;;;;;;10019847;28;20080;-59
2022/08/16 19:59:09;;;;;;;9.95;4.03;;;;;;;;;;10019748;28;20547;-60
2022/08/16 20:04:14;;;;;;;10.88;3.70;;;;;;;;;;10018944;28;20050;-60
2022/08/16 20:09:08;;;;;;;8.30;4.22;;;;;;;;;;10018406;28;20051;-60
2022/08/16 20:14:08;;;;;;;6.57;4.43;;;;;;;;;;10019957;28;20089;-60
2022/08/16 20:19:02;;;;;;;6.28;3.50;;;;;;;;;;10013794;28;20046;-60
2022/08/16 20:23:56;;;;;;;10.70;4.47;;;;;;;;;;10012552;28;20460;-61
2022/08/16 20:29:09;;;;;;;12.25;4.57;;;;;;;;;;10011949;28;20065;-61
2022/08/16 20:34:05;;;;;;;;;;;;;;;;;;10020289;28;20054;-60
2022/08/16 20:39:02;;;;;;;13.38;5.13;;;;;;;;;;10015366;28;19979;-58
2022/08/16 20:43:56;;;;;;;10.07;4.00;;;;;;;;;;10018451;28;20065;-58
2022/08/16 20:48:51;;;;;;;13.13;4.15;;;;;;;;;;10015157;28;20511;-59
2022/08/16 20:53:45;;;;;;;10.40;4.25;;;;;;;;;;10005621;28;20531;-59
2022/08/16 20:58:39;;;;;;;8.52;4.00;;;;;;;;;;10020694;28;20053;-60
2022/08/16 21:03:33;;;;;;;9.60;4.95;;;;;;;;;;10015780;28;20049;-59
2022/08/16 21:08:28;;;;;;;8.30;4.20;;;;;;;;;;10023048;28;20061;-57
2022/08/16 21:13:44;;;;;;;10.60;4.28;;;;;;;;;;10016383;28;20057;-58
2022/08/16 21:18:40;;;;;;;17.42;5.82;;;;;;;;;;10023259;28;20054;-58
2022/08/16 21:23:34;;;;;;;9.93;4.63;;;;;;;;;;10024809;28;20046;-59
2022/08/16 21:28:29;;;;;;;9.40;3.90;;;;;;;;;;10033719;28;20061;-60
2022/08/16 21:33:34;;;;;;;8.43;4.20;;;;;;;;;;10026029;28;20067;-59
2022/08/16 21:38:28;;;;;;;6.70;3.63;;;;;;;;;;10014537;28;20073;-59
2022/08/16 21:43:24;;;;;;;8.05;3.80;;;;;;;;;;10014149;28;20129;-59
2022/08/16 21:48:18;;;;;;;7.03;4.65;;;;;;;;;;10005506;28;20054;-59
2022/08/16 21:53:28;;;;;;;6.78;4.28;;;;;;;;;;9997855;28;20139;-59
2022/08/16 21:58:21;;;;;;;8.27;4.45;;;;;;;;;;9999750;28;20703;-59
2022/08/16 22:03:16;;;;;;;7.63;5.40;;;;;;;;;;10012680;28;20504;-59
2022/08/16 22:08:10;;;;;;;10.80;4.07;;;;;;;;;;9997300;28;20050;-59
2022/08/16 22:13:05;;;;;;;5.93;4.05;;;;;;;;;;10025411;28;20045;-60
2022/08/16 22:17:59;;;;;;;6.25;4.40;;;;;;;;;;10025646;28;20444;-60
2022/08/16 22:23:17;;;;;;;10.60;4.07;;;;;;;;;;10025229;28;20053;-60
2022/08/16 22:28:13;;;;;;;8.07;4.25;;;;;;;;;;10024977;28;20050;-59
2022/08/16 22:33:11;;;;;;;13.40;5.13;;;;;;;;;;10019090;28;20141;-60
2022/08/16 22:38:05;;;;;;;7.40;4.40;;;;;;;;;;10019407;28;20057;-60
2022/08/16 22:43:19;;;;;;;12.80;4.78;;;;;;;;;;10022888;28;20050;-60
2022/08/16 22:48:14;;;;;;;13.73;5.60;;;;;;;;;;10021634;28;20060;-58
2022/08/16 22:53:07;;;;;;;7.82;5.22;;;;;;;;;;10024208;28;20092;-59
2022/08/16 22:58:03;;;;;;;7.38;5.00;;;;;;;;;;10029933;28;20057;-60
2022/08/16 23:03:13;;;;;;;6.63;4.88;;;;;;;;;;10018573;28;20038;-60
2022/08/16 23:08:11;;;;;;;11.75;4.80;;;;;;;;;;10030360;28;20082;-60
2022/08/16 23:13:06;;;;;;;11.38;5.80;;;;;;;;;;10030519;28;20073;-59
2022/08/16 23:18:00;;;;;;;15.13;5.75;;;;;;;;;;10032834;28;20054;-60
2022/08/16 23:22:58;;;;;;;8.07;5.50;;;;;;;;;;10031950;28;20050;-60
2022/08/16 23:28:11;;;;;;;11.23;5.07;;;;;;;;;;10032354;28;20046;-60
2022/08/16 23:33:08;;;;;;;12.35;5.03;;;;;;;;;;10031645;28;20092;-60
2022/08/16 23:38:03;;;;;;;7.28;5.10;;;;;;;;;;10031951;28;20046;-59
2022/08/16 23:43:01;;;;;;;10.70;5.40;;;;;;;;;;10031087;28;20072;-59
2022/08/16 23:47:55;;;;;;;14.23;5.60;;;;;;;;;;10031463;28;20096;-59
2022/08/16 23:53:05;;;;;;;13.18;6.20;;;;;;;;;;10031168;28;20072;-59
2022/08/16 23:58:00;;;;;;;9.35;6.07;;;;;;;;;;10012245;28;20050;-59
